createdAt,value
2018-12-21T08:30:17.635Z,40.64
2018-12-21T08:31:17.621Z,40.64
2018-12-21T08:32:17.623Z,40.34
2018-12-21T08:33:17.610Z,40.62
2018-12-21T08:34:17.583Z,40.34
2018-12-21T08:35:17.564Z,40.84
2018-12-21T08:36:17.594Z,40.84
2018-12-21T08:37:17.551Z,40.44
2018-12-21T08:38:17.529Z,40.84
2018-12-21T08:39:17.784Z,40.74
2018-12-21T08:40:17.517Z,40.84
2018-12-21T08:41:17.500Z,40.64
2018-12-21T08:42:17.490Z,41.24
2018-12-21T08:43:18.226Z,41.04
2018-12-21T08:44:17.466Z,40.92
2018-12-21T08:45:17.964Z,40.94
2018-12-21T08:46:17.439Z,41.14
2018-12-21T08:47:17.510Z,40.94
2018-12-21T08:48:17.477Z,40.72
2018-12-21T08:49:18.651Z,40.84
2018-12-21T08:50:17.658Z,40.74
2018-12-21T08:51:17.390Z,40.64
2018-12-21T08:52:17.385Z,40.64
2018-12-21T08:53:17.451Z,40.94
2018-12-21T08:54:17.619Z,41.04
2018-12-21T08:55:17.399Z,40.64
2018-12-21T08:56:17.335Z,41.02
2018-12-21T08:57:17.321Z,41.02
2018-12-21T08:58:17.336Z,41.52
2018-12-21T08:59:17.369Z,40.82
2018-12-21T09:00:17.292Z,41.52
2018-12-21T09:01:17.278Z,41.12
2018-12-21T09:02:17.265Z,41.14
2018-12-21T09:03:17.253Z,41.12
2018-12-21T09:04:17.496Z,40.92
2018-12-21T09:05:18.050Z,41.04
2018-12-21T09:06:18.569Z,40.84
2018-12-21T09:07:17.260Z,40.84
2018-12-21T09:08:17.201Z,40.62
2018-12-21T09:09:17.247Z,40.82
2018-12-21T09:10:17.172Z,40.74
2018-12-21T09:11:18.305Z,40.72
2018-12-21T09:12:17.193Z,40.62
2018-12-21T09:13:17.253Z,40.82
2018-12-21T09:14:17.130Z,40.82
2018-12-21T09:15:17.131Z,40.74
2018-12-21T09:16:17.122Z,40.84
2018-12-21T09:17:17.151Z,40.82
2018-12-21T09:18:17.354Z,41.63
2018-12-21T09:19:17.374Z,41.44
2018-12-21T09:24:17.012Z,42.03
2018-12-21T09:25:17.027Z,42.25
2018-12-21T09:26:17.005Z,42.25
2018-12-21T09:27:17.006Z,42.05
2018-12-21T09:28:16.967Z,42.23
2018-12-21T09:29:16.968Z,41.75
2018-12-21T09:31:17.027Z,41.72
2018-12-21T09:32:16.927Z,42.03
2018-12-21T09:33:16.913Z,41.93
2018-12-21T09:34:18.153Z,42.13
2018-12-21T09:35:16.922Z,41.63
2018-12-21T09:36:16.900Z,41.65
2018-12-21T09:37:16.868Z,41.65
2018-12-21T09:39:16.972Z,41.63
2018-12-21T09:40:16.852Z,41.75
2018-12-21T09:41:16.846Z,41.63
2018-12-21T09:42:16.814Z,41.44
2018-12-21T09:43:16.953Z,41.72
2018-12-21T09:44:16.792Z,41.43
2018-12-21T09:45:17.222Z,41.52
2018-12-21T09:46:16.773Z,41.43
2018-12-21T09:47:16.847Z,41.55
2018-12-21T09:48:16.792Z,41.52
2018-12-21T09:49:16.746Z,41.52
2018-12-21T09:50:16.972Z,41.63
2018-12-21T09:51:18.958Z,41.72
2018-12-21T09:52:16.735Z,41.52
2018-12-21T09:53:16.692Z,41.63
2018-12-21T09:55:16.687Z,41.43
2018-12-21T09:59:16.710Z,41.72
2018-12-21T10:00:18.307Z,41.52
2018-12-21T10:01:38.630Z,41.43
2018-12-21T10:02:38.873Z,41.55
2018-12-21T10:03:38.652Z,41.83
2018-12-21T10:04:38.589Z,41.93
2018-12-21T10:05:38.600Z,41.52
2018-12-21T10:06:38.601Z,41.83
2018-12-21T10:07:38.758Z,41.63
2018-12-21T10:08:38.546Z,41.43
2018-12-21T10:09:39.315Z,41.93
2018-12-21T10:10:39.248Z,41.43
2018-12-21T10:11:38.603Z,41.93
2018-12-21T10:12:38.552Z,41.52
2018-12-21T10:13:38.485Z,41.83
2018-12-21T10:14:38.813Z,42.03
2018-12-21T10:16:38.536Z,42.13
2018-12-21T10:17:38.706Z,42.33
2018-12-21T10:18:38.700Z,42.13
2018-12-21T10:19:38.464Z,42.43
2018-12-21T10:20:38.413Z,42.53
2018-12-21T10:21:38.401Z,42.03
2018-12-21T10:23:38.387Z,42.23
2018-12-21T10:24:38.373Z,42.53
2018-12-21T10:25:38.408Z,42.03
2018-12-21T10:26:43.806Z,41.22
2018-12-21T10:27:38.788Z,42.21
2018-12-21T10:28:38.435Z,41.51
2018-12-21T10:29:38.308Z,40.60
2018-12-21T10:30:38.309Z,41.10
2018-12-21T10:31:38.295Z,41.10
2018-12-21T10:32:38.295Z,41.00
2018-12-21T10:33:38.270Z,40.78
2018-12-21T10:34:38.512Z,40.78
2018-12-21T10:35:38.240Z,41.08
2018-12-21T10:36:38.278Z,40.99
2018-12-21T10:37:38.225Z,40.78
2018-12-21T10:38:38.318Z,40.78
2018-12-21T10:39:38.488Z,40.58
2018-12-21T10:40:38.189Z,40.78
2018-12-21T10:41:38.187Z,40.58
2018-12-21T10:43:38.457Z,40.48
2018-12-21T10:44:38.140Z,40.18
2018-12-21T10:45:41.694Z,40.36
2018-12-21T10:46:38.181Z,40.06
2018-12-21T10:47:38.111Z,40.16
2018-12-21T10:48:38.189Z,40.16
2018-12-21T10:51:38.123Z,40.26
2018-12-21T10:52:38.991Z,40.46
2018-12-21T10:53:39.397Z,40.16
2018-12-21T10:54:38.029Z,40.36
2018-12-21T10:55:38.269Z,40.57
2018-12-21T10:56:38.006Z,40.26
2018-12-21T10:57:38.081Z,40.57
2018-12-21T10:58:37.988Z,40.66
2018-12-21T10:59:43.384Z,40.36
2018-12-21T11:00:37.966Z,40.57
2018-12-21T11:01:39.008Z,40.66
2018-12-21T11:02:37.945Z,40.57
2018-12-21T11:03:38.191Z,40.36
2018-12-21T11:04:37.913Z,40.36
2018-12-21T11:07:37.922Z,40.24
2018-12-21T11:08:37.882Z,40.16
2018-12-21T11:09:37.867Z,40.66
2018-12-21T11:10:37.854Z,40.64
2018-12-21T11:11:37.908Z,40.76
2018-12-21T11:12:37.837Z,40.76
2018-12-21T11:13:37.814Z,40.36
2018-12-21T11:14:38.665Z,40.46
2018-12-21T11:15:37.867Z,40.35
2018-12-21T11:16:37.793Z,40.14
2018-12-21T11:18:37.812Z,40.16
2018-12-21T11:19:37.756Z,40.74
2018-12-21T11:20:37.739Z,40.35
2018-12-21T11:22:37.803Z,40.35
2018-12-21T11:24:37.705Z,40.54
2018-12-21T11:25:37.697Z,40.35
2018-12-21T11:26:37.672Z,40.44
2018-12-21T11:27:37.716Z,40.44
2018-12-21T11:28:37.665Z,40.46
2018-12-21T11:29:37.674Z,40.35
2018-12-21T11:30:37.638Z,40.35
2018-12-21T11:32:37.606Z,40.44
2018-12-21T11:33:37.596Z,40.44
2018-12-21T11:34:37.593Z,40.14
2018-12-21T11:35:37.614Z,40.64
2018-12-21T11:36:37.817Z,40.14
2018-12-21T11:37:37.551Z,40.14
2018-12-21T11:38:37.791Z,40.35
2018-12-21T11:39:37.529Z,40.44
2018-12-21T11:42:37.801Z,40.24
2018-12-21T11:43:37.766Z,40.35
2018-12-21T11:44:37.589Z,40.64
2018-12-21T11:45:37.465Z,40.74
2018-12-21T11:46:37.490Z,40.54
2018-12-21T11:48:37.744Z,40.74
2018-12-21T11:49:37.486Z,40.64
2018-12-21T11:51:37.447Z,40.85
2018-12-21T11:52:37.390Z,40.64
2018-12-21T11:53:37.412Z,40.54
2018-12-21T11:56:59.608Z,40.85
2018-12-21T11:57:59.634Z,40.74
2018-12-21T12:01:00.141Z,40.85
2018-12-21T12:03:59.683Z,40.85
2018-12-21T12:04:59.526Z,40.74
2018-12-21T12:05:59.578Z,41.05
2018-12-21T12:06:59.499Z,40.85
2018-12-21T12:10:21.842Z,40.85
2018-12-21T12:11:21.580Z,40.64
2018-12-21T12:12:21.577Z,41.25
2018-12-21T12:13:21.617Z,41.25
2018-12-21T12:14:21.541Z,40.85
2018-12-21T12:15:21.532Z,40.64
2018-12-21T12:19:21.488Z,40.85
2018-12-21T12:23:21.502Z,41.05
2018-12-21T12:25:21.623Z,40.94
2018-12-21T12:29:21.633Z,40.94
2018-12-21T12:30:21.366Z,40.54
2018-12-21T12:32:21.664Z,40.94
2018-12-21T12:33:21.326Z,40.64
2018-12-21T12:36:21.296Z,40.54
2018-12-21T12:39:21.694Z,41.05
2018-12-21T12:43:21.221Z,40.54
2018-12-21T12:44:21.197Z,40.44
2018-12-21T12:45:21.197Z,41.05
2018-12-21T12:49:21.150Z,40.94
2018-12-21T12:51:21.119Z,40.35
2018-12-21T12:53:21.102Z,40.52
2018-12-21T12:56:24.229Z,40.52
2018-12-21T13:00:21.461Z,40.74
2018-12-21T13:03:20.999Z,41.02
2018-12-21T13:04:20.992Z,40.93
2018-12-21T13:09:20.916Z,41.13
2018-12-21T13:13:20.970Z,40.64
2018-12-21T13:27:20.713Z,40.64
2018-12-21T13:28:20.705Z,40.72
2018-12-21T13:31:21.150Z,40.64
2018-12-21T13:32:20.706Z,41.65
2018-12-21T13:34:23.111Z,41.05
2018-12-21T13:35:20.659Z,40.74
2018-12-21T13:37:20.613Z,41.35
2018-12-21T13:39:24.736Z,41.35
2018-12-21T13:41:20.753Z,41.55
2018-12-21T13:48:20.734Z,41.65
2018-12-21T13:51:20.439Z,41.75
2018-12-21T13:57:20.626Z,42.15
2018-12-21T14:04:20.297Z,41.75
2018-12-21T14:12:20.639Z,41.36
2018-12-21T14:50:41.460Z,42.47
